createdAt,value
2018-04-23T00:00:14.927Z,13.80
2018-04-23T00:02:41.020Z,14.17
2018-04-23T00:05:07.843Z,13.73
2018-04-23T00:07:33.951Z,14.53
2018-04-23T00:13:06.681Z,14.37
2018-04-23T00:15:32.769Z,15.07
2018-04-23T00:17:58.846Z,14.20
2018-04-23T00:20:25.663Z,13.93
2018-04-23T00:22:51.746Z,14.57
2018-04-23T00:25:17.819Z,16.40
2018-04-23T00:27:43.899Z,15.90
2018-04-23T00:30:09.968Z,16.00
2018-04-23T00:32:36.053Z,17.10
2018-04-23T00:35:02.126Z,13.87
2018-04-23T00:37:28.942Z,17.10
2018-04-23T00:39:55.005Z,16.43
2018-04-23T00:42:21.837Z,16.00
2018-04-23T00:44:48.645Z,14.80
2018-04-23T00:47:14.729Z,16.37
2018-04-23T00:49:40.799Z,15.53
2018-04-23T00:52:06.887Z,16.83
2018-04-23T00:54:32.965Z,15.73
2018-04-23T00:56:59.053Z,14.60
2018-04-23T00:59:25.134Z,15.80
2018-04-23T01:01:51.945Z,15.40
2018-04-23T01:04:18.026Z,15.10
2018-04-23T01:06:44.093Z,15.23
2018-04-23T01:09:10.166Z,15.70
2018-04-23T01:11:36.970Z,15.50
2018-04-23T01:14:03.046Z,14.63
2018-04-23T01:16:29.105Z,16.10
2018-04-23T01:18:55.179Z,15.80
2018-04-23T01:21:21.981Z,15.07
2018-04-23T01:23:48.053Z,14.17
2018-04-23T01:26:14.865Z,15.03
2018-04-23T01:28:41.621Z,15.00
2018-04-23T01:31:08.425Z,15.90
2018-04-23T01:33:34.501Z,14.77
2018-04-23T01:36:01.329Z,15.07
2018-04-23T01:38:28.155Z,16.10
2018-04-23T01:40:54.236Z,16.43
2018-04-23T01:43:20.306Z,17.10
2018-04-23T01:45:46.397Z,17.73
2018-04-23T01:48:12.464Z,16.77
2018-04-23T01:50:38.538Z,19.23
2018-04-23T01:53:04.633Z,18.23
2018-04-23T01:55:31.456Z,18.87
2018-04-23T01:57:57.534Z,18.57
2018-04-23T02:00:23.626Z,18.53
2018-04-23T02:02:50.461Z,19.67
2018-04-23T02:05:17.289Z,18.47
2018-04-23T02:07:43.382Z,17.60
2018-04-23T02:10:09.469Z,16.43
2018-04-23T02:12:36.281Z,16.57
2018-04-23T02:15:02.354Z,16.50
2018-04-23T02:17:28.444Z,16.33
2018-04-23T02:19:55.260Z,16.07
2018-04-23T02:22:21.351Z,16.17
2018-04-23T02:24:47.479Z,15.70
2018-04-23T02:27:14.274Z,16.03
2018-04-23T02:29:40.352Z,17.40
2018-04-23T02:32:06.449Z,16.30
2018-04-23T02:34:32.538Z,15.77
2018-04-23T02:36:58.642Z,17.00
2018-04-23T02:39:24.730Z,16.20
2018-04-23T02:41:50.829Z,17.23
2018-04-23T02:44:16.937Z,16.40
2018-04-23T02:46:43.777Z,15.93
2018-04-23T02:49:09.884Z,17.17
2018-04-23T02:51:35.991Z,16.77
2018-04-23T02:54:02.083Z,16.40
2018-04-23T02:56:28.913Z,15.87
2018-04-23T02:58:55.001Z,17.70
2018-04-23T03:01:21.085Z,16.17
2018-04-23T03:03:47.905Z,16.13
2018-04-23T03:06:13.981Z,19.07
2018-04-23T03:08:40.073Z,19.03
2018-04-23T03:11:06.894Z,18.80
2018-04-23T03:13:32.998Z,18.73
2018-04-23T03:15:59.080Z,17.87
2018-04-23T03:18:25.178Z,18.97
2018-04-23T03:20:51.261Z,18.90
2018-04-23T03:23:17.345Z,20.10
2018-04-23T03:25:44.166Z,19.80
2018-04-23T03:28:10.264Z,20.67
2018-04-23T03:30:36.352Z,20.60
2018-04-23T03:33:02.441Z,20.63
2018-04-23T03:35:28.525Z,21.70
2018-04-23T03:37:54.606Z,21.50
2018-04-23T03:40:20.699Z,22.90
2018-04-23T03:42:46.792Z,23.87
2018-04-23T03:45:12.880Z,23.73
2018-04-23T03:47:39.706Z,23.33
2018-04-23T03:50:05.799Z,22.77
2018-04-23T03:52:31.901Z,21.67
2018-04-23T03:54:57.989Z,23.10
2018-04-23T03:57:24.069Z,21.63
2018-04-23T03:59:50.161Z,21.90
2018-04-23T04:02:16.988Z,21.73
2018-04-23T04:04:43.082Z,19.67
2018-04-23T04:07:09.178Z,21.13
2018-04-23T04:09:35.301Z,19.63
2018-04-23T04:12:20.206Z,18.83
2018-04-23T04:15:05.151Z,18.40
2018-04-23T04:20:27.144Z,17.17
2018-04-23T04:22:53.222Z,16.87
2018-04-23T04:25:19.300Z,16.67
2018-04-23T04:27:45.380Z,15.70
2018-04-23T04:30:11.454Z,14.77
2018-04-23T04:32:37.545Z,15.10
2018-04-23T04:35:03.629Z,14.93
2018-04-23T04:37:29.718Z,15.83
2018-04-23T04:39:55.810Z,16.00
2018-04-23T04:42:21.899Z,15.87
2018-04-23T04:44:48.721Z,12.30
2018-04-23T04:47:14.816Z,13.60
2018-04-23T04:49:40.910Z,15.87
2018-04-23T04:52:06.994Z,13.13
2018-04-23T04:54:33.079Z,12.13
2018-04-23T04:56:59.157Z,13.03
2018-04-23T04:59:25.981Z,11.37
2018-04-23T05:01:52.062Z,11.67
2018-04-23T05:04:18.159Z,11.67
2018-04-23T05:06:44.986Z,11.30
2018-04-23T05:09:11.077Z,11.40
2018-04-23T05:11:37.149Z,11.13
2018-04-23T05:14:03.981Z,10.77
2018-04-23T05:16:30.097Z,11.50
2018-04-23T05:18:56.971Z,10.77
2018-04-23T05:21:23.065Z,10.40
2018-04-23T05:23:49.194Z,11.50
2018-04-23T05:26:15.254Z,9.67
2018-04-23T05:28:41.346Z,10.37
2018-04-23T05:31:07.438Z,10.00
2018-04-23T05:33:33.522Z,9.43
2018-04-23T05:36:00.367Z,9.33
2018-04-23T05:38:27.189Z,8.50
2018-04-23T05:40:53.437Z,8.93
2018-04-23T05:43:20.261Z,7.97
2018-04-23T05:45:47.097Z,8.45
2018-04-23T05:48:13.177Z,6.90
2018-04-23T05:50:39.269Z,6.62
2018-04-23T05:53:26.907Z,7.70
2018-04-23T05:55:52.981Z,7.35
2018-04-23T06:01:34.715Z,7.03
2018-04-23T06:04:08.069Z,6.87
2018-04-23T06:06:44.750Z,7.22
2018-04-23T06:12:14.933Z,6.90
2018-04-23T06:14:41.741Z,7.68
2018-04-23T06:17:07.812Z,7.60
2018-04-23T06:19:39.292Z,6.90
2018-04-23T06:22:06.074Z,6.50
2018-04-23T06:24:32.153Z,7.18
2018-04-23T06:26:58.221Z,6.87
2018-04-23T06:29:27.551Z,6.78
2018-04-23T06:31:54.377Z,7.37
2018-04-23T06:34:20.466Z,7.00
2018-04-23T06:36:47.350Z,7.18
2018-04-23T06:39:13.426Z,6.78
2018-04-23T06:41:39.517Z,6.97
2018-04-23T06:44:06.325Z,6.78
2018-04-23T06:46:32.398Z,6.28
2018-04-23T06:48:58.818Z,6.60
2018-04-23T06:51:25.629Z,6.60
2018-04-23T06:53:52.258Z,6.32
2018-04-23T06:56:18.341Z,6.53
2018-04-23T06:58:48.641Z,6.90
2018-04-23T07:01:15.461Z,6.62
2018-04-23T07:03:45.782Z,6.68
2018-04-23T07:06:11.855Z,6.72
2018-04-23T07:08:38.664Z,6.28
2018-04-23T07:11:04.739Z,6.43
2018-04-23T07:13:30.822Z,6.40
2018-04-23T07:15:56.890Z,7.10
2018-04-23T07:18:22.966Z,5.62
2018-04-23T07:20:49.030Z,6.72
2018-04-23T07:23:15.785Z,6.20
2018-04-23T07:25:41.849Z,5.93
2018-04-23T07:28:07.914Z,7.30
2018-04-23T07:30:33.997Z,6.68
2018-04-23T07:33:00.065Z,6.40
2018-04-23T07:35:26.150Z,6.35
2018-04-23T07:37:52.228Z,7.10
2018-04-23T07:40:18.297Z,7.32
2018-04-23T07:42:45.331Z,7.55
2018-04-23T07:45:11.418Z,7.82
2018-04-23T07:47:37.481Z,7.85
2018-04-23T07:50:03.554Z,7.68
2018-04-23T07:52:30.388Z,7.47
2018-04-23T07:54:57.226Z,8.05
2018-04-23T07:57:24.049Z,8.18
2018-04-23T07:59:50.165Z,8.10
2018-04-23T08:02:16.249Z,8.02
2018-04-23T08:04:42.334Z,10.20
2018-04-23T08:07:08.431Z,8.48
2018-04-23T08:09:34.530Z,9.15
2018-04-23T08:12:00.625Z,8.75
2018-04-23T08:14:27.441Z,8.48
2018-04-23T08:16:53.529Z,8.27
2018-04-23T08:19:19.605Z,8.65
2018-04-23T08:21:46.426Z,8.60
2018-04-23T08:24:12.509Z,8.82
2018-04-23T08:26:38.610Z,8.85
2018-04-23T08:29:05.434Z,9.07
2018-04-23T08:31:31.522Z,8.50
2018-04-23T08:33:57.609Z,8.45
2018-04-23T08:36:24.973Z,8.98
2018-04-23T08:38:51.807Z,8.63
2018-04-23T08:41:18.634Z,8.57
2018-04-23T08:43:44.749Z,8.23
2018-04-23T08:46:10.830Z,9.43
2018-04-23T08:48:36.928Z,8.45
2018-04-23T08:51:03.757Z,9.63
2018-04-23T08:53:29.866Z,9.50
2018-04-23T08:55:55.985Z,8.95
2018-04-23T08:58:22.054Z,9.30
2018-04-23T09:00:48.892Z,9.88
2018-04-23T09:03:15.721Z,9.30
2018-04-23T09:05:41.801Z,9.10
2018-04-23T09:08:07.888Z,9.48
2018-04-23T09:10:34.724Z,9.90
2018-04-23T09:13:01.559Z,9.80
2018-04-23T09:15:27.650Z,9.25
2018-04-23T09:17:55.151Z,9.32
2018-04-23T09:20:21.986Z,9.32
2018-04-23T09:22:48.075Z,10.15
2018-04-23T09:25:14.164Z,9.35
2018-04-23T09:27:40.251Z,9.57
2018-04-23T09:30:06.345Z,9.45
2018-04-23T09:32:32.446Z,10.07
2018-04-23T09:34:58.533Z,9.35
2018-04-23T09:37:24.623Z,9.43
2018-04-23T09:39:50.701Z,9.82
2018-04-23T09:42:16.786Z,9.80
2018-04-23T09:44:42.927Z,9.95
2018-04-23T09:47:08.981Z,10.45
2018-04-23T09:49:35.817Z,10.38
2018-04-23T09:52:02.641Z,9.70
2018-04-23T09:54:28.762Z,10.02
2018-04-23T09:56:54.845Z,11.38
2018-04-23T09:59:20.930Z,10.85
2018-04-23T10:01:50.001Z,10.40
2018-04-23T10:04:19.950Z,10.07
2018-04-23T10:06:46.790Z,10.98
2018-04-23T10:09:13.637Z,10.38
2018-04-23T10:11:40.473Z,11.10
2018-04-23T10:14:06.555Z,10.88
2018-04-23T10:16:32.687Z,11.85
2018-04-23T10:18:58.746Z,11.25
2018-04-23T10:21:24.830Z,11.23
2018-04-23T10:23:50.905Z,11.23
2018-04-23T10:26:17.737Z,10.93
2018-04-23T10:28:43.823Z,10.65
2018-04-23T10:31:09.926Z,10.35
2018-04-23T10:33:36.014Z,11.02
2018-04-23T10:36:02.090Z,9.60
2018-04-23T10:38:28.179Z,10.35
2018-04-23T10:40:55.013Z,10.18
2018-04-23T10:43:21.110Z,10.38
2018-04-23T10:45:47.186Z,10.00
2018-04-23T10:48:13.997Z,9.77
2018-04-23T10:50:40.077Z,10.40
2018-04-23T10:53:06.176Z,9.73
2018-04-23T10:55:32.998Z,9.85
2018-04-23T10:57:59.083Z,9.18
2018-04-23T11:00:25.168Z,9.63
2018-04-23T11:02:51.993Z,9.68
2018-04-23T11:05:18.080Z,10.27
2018-04-23T11:07:44.169Z,9.63
2018-04-23T11:10:10.250Z,9.23
2018-04-23T11:12:36.361Z,9.32
2018-04-23T11:15:02.433Z,9.65
2018-04-23T11:17:29.253Z,9.80
2018-04-23T11:19:56.829Z,8.18
2018-04-23T11:22:23.650Z,8.07
2018-04-23T11:24:49.775Z,7.75
2018-04-23T11:27:15.827Z,6.93
2018-04-23T11:29:42.658Z,6.78
2018-04-23T11:32:08.733Z,6.50
2018-04-23T11:34:34.826Z,7.30
2018-04-23T11:37:01.642Z,7.05
2018-04-23T11:39:27.738Z,6.85
2018-04-23T11:41:53.834Z,7.20
2018-04-23T11:44:19.917Z,7.62
2018-04-23T11:46:45.998Z,7.93
2018-04-23T11:49:12.093Z,7.85
2018-04-23T11:51:38.932Z,7.15
2018-04-23T11:54:05.777Z,7.00
2018-04-23T11:56:32.605Z,7.10
2018-04-23T11:58:58.681Z,6.90
2018-04-23T12:01:24.778Z,7.43
2018-04-23T12:03:51.598Z,7.05
2018-04-23T12:06:17.690Z,7.07
2018-04-23T12:08:43.779Z,6.60
2018-04-23T12:11:09.878Z,6.65
2018-04-23T12:13:35.993Z,6.95
2018-04-23T12:16:02.060Z,6.95
2018-04-23T12:18:29.042Z,7.07
2018-04-23T12:20:55.133Z,7.32
2018-04-23T12:23:21.214Z,7.12
2018-04-23T12:25:48.057Z,6.82
2018-04-23T12:28:14.142Z,7.30
2018-04-23T12:30:40.276Z,6.37
2018-04-23T12:33:06.335Z,7.30
2018-04-23T12:35:32.416Z,7.07
2018-04-23T12:37:58.509Z,6.50
2018-04-23T12:40:25.337Z,6.35
2018-04-23T12:42:51.429Z,6.82
2018-04-23T12:45:17.518Z,6.55
2018-04-23T12:47:43.613Z,6.70
2018-04-23T12:50:09.690Z,6.75
2018-04-23T12:52:35.785Z,6.85
2018-04-23T12:55:02.610Z,6.22
2018-04-23T12:57:28.698Z,6.97
2018-04-23T12:59:55.631Z,6.22
2018-04-23T13:02:21.737Z,6.40
2018-04-23T13:04:47.822Z,6.82
2018-04-23T13:07:13.921Z,6.47
2018-04-23T13:09:40.010Z,6.85
2018-04-23T13:12:06.098Z,6.90
2018-04-23T13:14:32.190Z,6.62
2018-04-23T13:16:58.273Z,6.47
2018-04-23T13:19:25.107Z,7.10
2018-04-23T13:21:51.937Z,6.32
2018-04-23T13:24:29.398Z,6.45
2018-04-23T13:26:55.474Z,6.95
2018-04-23T13:29:22.313Z,6.50
2018-04-23T13:31:49.150Z,7.60
2018-04-23T13:34:15.253Z,7.80
2018-04-23T13:36:42.315Z,7.03
2018-04-23T13:39:09.170Z,7.30
2018-04-23T13:41:36.003Z,7.22
2018-04-23T13:44:02.088Z,6.57
2018-04-23T13:46:28.169Z,7.35
2018-04-23T13:48:54.994Z,7.37
2018-04-23T13:51:21.818Z,8.05
2018-04-23T13:53:47.901Z,7.55
2018-04-23T13:56:14.009Z,7.43
2018-04-23T13:58:40.845Z,7.75
2018-04-23T14:01:07.682Z,7.85
2018-04-23T14:03:33.766Z,8.35
2018-04-23T14:05:59.858Z,8.00
2018-04-23T14:08:26.491Z,8.18
2018-04-23T14:10:53.322Z,9.00
2018-04-23T14:13:20.158Z,8.30
2018-04-23T14:15:46.247Z,8.35
2018-04-23T14:18:12.334Z,8.52
2018-04-23T14:20:38.428Z,8.73
2018-04-23T14:23:04.518Z,8.70
2018-04-23T14:25:30.618Z,8.48
2018-04-23T14:27:56.704Z,8.50
2018-04-23T14:30:22.816Z,7.90
2018-04-23T14:32:48.898Z,8.98
2018-04-23T14:35:14.985Z,8.55
2018-04-23T14:37:41.829Z,7.90
2018-04-23T14:40:08.670Z,7.60
2018-04-23T14:42:34.765Z,7.87
2018-04-23T14:45:00.850Z,7.45
2018-04-23T14:47:26.943Z,7.37
2018-04-23T14:49:53.019Z,7.65
2018-04-23T14:52:19.100Z,8.30
2018-04-23T14:54:45.188Z,8.98
2018-04-23T14:57:11.277Z,10.50
2018-04-23T14:59:37.352Z,12.50
2018-04-23T15:02:03.433Z,20.23
2018-04-23T15:04:29.505Z,18.98
2018-04-23T15:06:55.598Z,15.15
2018-04-23T15:09:21.685Z,15.83
2018-04-23T15:11:48.497Z,16.67
2018-04-23T15:14:14.565Z,19.90
2018-04-23T15:16:41.382Z,22.07
2018-04-23T15:19:07.465Z,22.27
2018-04-23T15:21:33.534Z,21.17
2018-04-23T15:24:00.190Z,20.73
2018-04-23T15:26:27.000Z,18.10
2018-04-23T15:28:53.566Z,19.47
2018-04-23T15:31:20.385Z,19.23
2018-04-23T15:33:46.445Z,18.27
2018-04-23T15:36:12.502Z,17.70
2018-04-23T15:38:38.582Z,18.70
2018-04-23T15:41:05.401Z,18.63
2018-04-23T15:43:31.478Z,20.07
2018-04-23T15:45:57.544Z,19.77
2018-04-23T15:48:23.607Z,20.10
2018-04-23T15:50:50.429Z,19.40
2018-04-23T15:53:16.505Z,21.30
2018-04-23T15:55:42.581Z,22.47
2018-04-23T15:58:08.653Z,23.87
2018-04-23T16:00:34.785Z,23.13
2018-04-23T16:03:00.854Z,23.97
2018-04-23T16:05:26.965Z,24.30
2018-04-23T16:07:53.042Z,22.03
2018-04-23T16:10:19.820Z,24.27
2018-04-23T16:12:45.894Z,22.90
2018-04-23T16:15:12.725Z,23.77
2018-04-23T16:17:38.796Z,23.77
2018-04-23T16:20:04.886Z,23.73
2018-04-23T16:22:31.701Z,22.93
2018-04-23T16:24:57.795Z,24.43
2018-04-23T16:27:30.669Z,23.50
2018-04-23T16:32:59.441Z,22.83
2018-04-23T16:35:26.269Z,23.30
2018-04-23T16:41:15.082Z,23.97
2018-04-23T16:44:05.781Z,24.77
2018-04-23T16:46:31.856Z,25.10
2018-04-23T16:49:01.509Z,24.43
2018-04-23T16:51:27.598Z,25.23
2018-04-23T16:53:54.561Z,26.63
2018-04-23T16:56:20.657Z,27.10
2018-04-23T16:59:01.242Z,30.57
2018-04-23T17:01:27.369Z,28.57
2018-04-23T17:03:53.448Z,26.57
2018-04-23T17:06:19.526Z,29.00
2018-04-23T17:08:45.602Z,28.57
2018-04-23T17:11:11.669Z,28.43
2018-04-23T17:13:37.745Z,26.47
2018-04-23T17:16:03.826Z,27.57
2018-04-23T17:18:36.276Z,27.33
2018-04-23T17:21:02.353Z,26.13
2018-04-23T17:23:28.439Z,25.37
2018-04-23T17:26:25.625Z,25.60
2018-04-23T17:28:52.490Z,25.77
2018-04-23T17:31:18.574Z,26.17
2018-04-23T17:33:44.666Z,25.97
2018-04-23T17:36:10.761Z,26.57
2018-04-23T17:38:36.839Z,26.83
2018-04-23T17:41:02.905Z,27.13
2018-04-23T17:43:28.997Z,26.33
2018-04-23T17:45:55.077Z,28.33
2018-04-23T17:48:21.185Z,25.73
2018-04-23T17:50:47.266Z,25.37
2018-04-23T17:53:13.359Z,25.73
2018-04-23T17:55:39.446Z,25.63
2018-04-23T17:58:06.274Z,25.53
2018-04-23T18:00:33.457Z,26.10
2018-04-23T18:02:59.549Z,24.53
2018-04-23T18:05:25.634Z,25.70
2018-04-23T18:07:51.726Z,26.57
2018-04-23T18:10:18.562Z,27.03
2018-04-23T18:12:45.399Z,28.20
2018-04-23T18:15:14.312Z,31.57
2018-04-23T18:20:59.078Z,33.53
2018-04-23T18:23:25.909Z,33.60
2018-04-23T18:26:06.173Z,31.67
2018-04-23T18:28:36.953Z,32.67
2018-04-23T18:31:03.050Z,36.83
2018-04-23T18:33:29.882Z,36.77
2018-04-23T18:35:56.721Z,36.73
2018-04-23T18:38:23.554Z,34.13
2018-04-23T18:40:49.654Z,34.17
2018-04-23T18:43:15.752Z,32.93
2018-04-23T18:45:43.940Z,33.87
2018-04-23T18:48:10.018Z,33.13
2018-04-23T18:50:37.496Z,34.97
2018-04-23T18:53:03.598Z,34.03
2018-04-23T18:55:30.428Z,35.60
2018-04-23T18:57:56.520Z,37.00
2018-04-23T19:00:22.604Z,40.17
2018-04-23T19:02:49.442Z,40.07
2018-04-23T19:05:16.283Z,43.47
2018-04-23T19:07:43.129Z,44.30
2018-04-23T19:10:09.973Z,45.67
2018-04-23T19:12:36.821Z,44.20
2018-04-23T19:15:03.657Z,44.03
2018-04-23T19:17:30.495Z,40.70
2018-04-23T19:19:57.326Z,40.87
2018-04-23T19:22:23.433Z,40.30
2018-04-23T19:24:49.515Z,41.27
2018-04-23T19:27:15.606Z,42.03
2018-04-23T19:29:41.688Z,42.40
2018-04-23T19:32:07.801Z,45.73
2018-04-23T19:34:33.901Z,43.47
2018-04-23T19:37:00.735Z,44.20
2018-04-23T19:39:26.837Z,44.23
2018-04-23T19:41:52.929Z,45.27
2018-04-23T19:44:19.067Z,45.93
2018-04-23T19:50:08.841Z,45.23
2018-04-23T19:52:34.960Z,44.50
2018-04-23T19:55:01.053Z,43.00
2018-04-23T19:57:27.141Z,42.93
2018-04-23T19:59:53.240Z,40.33
2018-04-23T20:02:19.325Z,43.40
2018-04-23T20:04:45.433Z,41.67
2018-04-23T20:07:11.538Z,41.23
2018-04-23T20:09:37.641Z,42.57
2018-04-23T20:12:03.729Z,43.50
2018-04-23T20:14:29.860Z,42.57
2018-04-23T20:16:55.927Z,41.57
2018-04-23T20:19:22.010Z,42.00
2018-04-23T20:21:48.078Z,37.50
2018-04-23T20:24:14.219Z,37.33
2018-04-23T20:26:44.113Z,34.33
2018-04-23T20:29:17.250Z,34.97
2018-04-23T20:32:00.994Z,34.03
2018-04-23T20:34:58.538Z,35.00
2018-04-23T20:37:24.622Z,34.93
2018-04-23T20:39:50.741Z,35.83
2018-04-23T20:42:17.568Z,38.07
2018-04-23T20:44:43.641Z,37.67
2018-04-23T20:47:28.355Z,40.17
2018-04-23T20:49:54.442Z,40.53
2018-04-23T20:52:20.539Z,41.10
2018-04-23T20:54:46.625Z,42.90
2018-04-23T20:57:12.719Z,43.97
2018-04-23T20:59:39.390Z,43.43
2018-04-23T21:02:05.485Z,42.60
2018-04-23T21:04:32.607Z,41.73
2018-04-23T21:06:58.698Z,41.30
2018-04-23T21:09:25.578Z,41.37
2018-04-23T21:11:52.970Z,39.43
2018-04-23T21:14:19.066Z,39.37
2018-04-23T21:16:45.168Z,38.63
2018-04-23T21:19:11.269Z,36.87
2018-04-23T21:21:37.366Z,37.40
2018-04-23T21:24:04.186Z,35.83
2018-04-23T21:26:30.281Z,37.10
2018-04-23T21:28:57.085Z,36.83
2018-04-23T21:31:23.902Z,36.93
2018-04-23T21:33:49.979Z,36.13
2018-04-23T21:36:16.056Z,37.90
2018-04-23T21:38:42.153Z,37.67
2018-04-23T21:41:08.958Z,36.67
2018-04-23T21:43:35.044Z,39.47
2018-04-23T21:46:01.111Z,37.73
2018-04-23T21:48:27.194Z,38.70
2018-04-23T21:50:53.261Z,39.80
2018-04-23T21:53:19.428Z,36.50
2018-04-23T21:55:45.518Z,39.77
2018-04-23T21:58:11.619Z,40.23
2018-04-23T22:00:37.698Z,38.60
2018-04-23T22:03:04.541Z,39.67
2018-04-23T22:05:30.633Z,38.30
2018-04-23T22:08:02.977Z,40.70
2018-04-23T22:10:30.824Z,37.13
2018-04-23T22:13:03.615Z,38.87
2018-04-23T22:15:29.637Z,37.93
2018-04-23T22:17:55.729Z,37.77
2018-04-23T22:20:22.557Z,37.13
2018-04-23T22:22:50.752Z,35.83
2018-04-23T22:25:17.588Z,36.43
2018-04-23T22:27:45.059Z,35.33
2018-04-23T22:30:11.165Z,34.60
2018-04-23T22:32:37.981Z,35.17
2018-04-23T22:35:04.146Z,34.97
2018-04-23T22:37:30.198Z,37.17
2018-04-23T22:39:56.289Z,36.90
2018-04-23T22:42:23.125Z,35.00
2018-04-23T22:44:49.233Z,33.97
2018-04-23T22:47:15.316Z,34.37
2018-04-23T22:49:41.418Z,34.73
2018-04-23T22:52:08.249Z,37.27
2018-04-23T22:54:35.086Z,38.27
2018-04-23T22:57:01.185Z,35.70
2018-04-23T22:59:27.275Z,34.97
2018-04-23T23:01:53.361Z,36.93
2018-04-23T23:04:19.446Z,38.03
2018-04-23T23:06:45.543Z,37.47
2018-04-23T23:09:11.621Z,40.47
2018-04-23T23:11:37.709Z,41.67
2018-04-23T23:14:05.154Z,41.13
2018-04-23T23:16:31.234Z,42.40
2018-04-23T23:18:57.326Z,40.77
2018-04-23T23:21:23.418Z,41.20
2018-04-23T23:23:50.246Z,38.17
2018-04-23T23:26:17.107Z,41.73
2018-04-23T23:28:43.197Z,45.60
2018-04-23T23:31:09.281Z,45.37
2018-04-23T23:33:35.374Z,50.30
2018-04-23T23:36:02.214Z,47.93
2018-04-23T23:38:29.053Z,45.83
2018-04-23T23:40:55.881Z,48.27
2018-04-23T23:43:21.970Z,47.27
2018-04-23T23:45:48.053Z,48.13
2018-04-23T23:48:14.877Z,48.70
2018-04-23T23:50:40.974Z,46.23
2018-04-23T23:53:07.094Z,47.60
2018-04-23T23:55:33.922Z,50.00
2018-04-23T23:58:00.020Z,50.80
